sensor_id;sensor_type;location;lat;lon;timestamp;temperature;humidity
1049;DHT22;513;51.444;7.196;2023-03-12T00:01:49;1.80;99.90
1049;DHT22;513;51.444;7.196;2023-03-12T00:04:16;1.80;58.40
1049;DHT22;513;51.444;7.196;2023-03-12T00:06:42;1.70;1.00
1049;DHT22;513;51.444;7.196;2023-03-12T00:09:09;1.70;1.00
1049;DHT22;513;51.444;7.196;2023-03-12T00:11:36;1.60;1.00
1049;DHT22;513;51.444;7.196;2023-03-12T00:14:04;1.60;1.00
1049;DHT22;513;51.444;7.196;2023-03-12T00:16:31;1.40;1.00
1049;DHT22;513;51.444;7.196;2023-03-12T00:18:57;1.40;1.00
1049;DHT22;513;51.444;7.196;2023-03-12T00:21:24;1.40;1.00
1049;DHT22;513;51.444;7.196;2023-03-12T00:23:51;1.40;1.00
1049;DHT22;513;51.444;7.196;2023-03-12T00:26:20;1.40;1.00
1049;DHT22;513;51.444;7.196;2023-03-12T00:28:48;1.40;1.00
1049;DHT22;513;51.444;7.196;2023-03-12T00:31:17;1.40;1.00
1049;DHT22;513;51.444;7.196;2023-03-12T00:33:44;1.40;1.00
1049;DHT22;513;51.444;7.196;2023-03-12T00:36:13;1.50;1.00
1049;DHT22;513;51.444;7.196;2023-03-12T00:38:40;1.40;1.00
1049;DHT22;513;51.444;7.196;2023-03-12T00:41:07;1.40;1.00
1049;DHT22;513;51.444;7.196;2023-03-12T00:43:34;1.60;1.00
1049;DHT22;513;51.444;7.196;2023-03-12T00:46:00;1.60;1.00
1049;DHT22;513;51.444;7.196;2023-03-12T00:48:28;1.70;1.00
1049;DHT22;513;51.444;7.196;2023-03-12T00:50:55;1.60;99.90
1049;DHT22;513;51.444;7.196;2023-03-12T00:53:22;1.70;99.90
1049;DHT22;513;51.444;7.196;2023-03-12T00:55:49;1.60;99.90
1049;DHT22;513;51.444;7.196;2023-03-12T00:58:15;1.70;99.90
1049;DHT22;513;51.444;7.196;2023-03-12T01:00:42;1.70;99.90
1049;DHT22;513;51.444;7.196;2023-03-12T01:03:09;1.70;99.90
1049;DHT22;513;51.444;7.196;2023-03-12T01:05:37;1.70;99.90
1049;DHT22;513;51.444;7.196;2023-03-12T01:08:05;1.80;99.90
1049;DHT22;513;51.444;7.196;2023-03-12T01:10:32;1.70;99.90
1049;DHT22;513;51.444;7.196;2023-03-12T01:12:59;1.70;99.90
1049;DHT22;513;51.444;7.196;2023-03-12T01:15:27;1.70;99.90
1049;DHT22;513;51.444;7.196;2023-03-12T01:17:54;1.70;99.90
1049;DHT22;513;51.444;7.196;2023-03-12T01:20:20;1.80;99.90
1049;DHT22;513;51.444;7.196;2023-03-12T01:22:50;1.80;99.90
1049;DHT22;513;51.444;7.196;2023-03-12T01:25:18;1.90;99.90
1049;DHT22;513;51.444;7.196;2023-03-12T01:27:44;1.90;99.90
1049;DHT22;513;51.444;7.196;2023-03-12T01:30:12;1.90;99.90
1049;DHT22;513;51.444;7.196;2023-03-12T01:32:39;1.90;83.70
1049;DHT22;513;51.444;7.196;2023-03-12T01:35:06;1.90;99.90
1049;DHT22;513;51.444;7.196;2023-03-12T01:37:33;2.00;96.40
1049;DHT22;513;51.444;7.196;2023-03-12T01:40:01;1.90;96.40
1049;DHT22;513;51.444;7.196;2023-03-12T01:42:28;1.90;97.00
1049;DHT22;513;51.444;7.196;2023-03-12T01:44:57;1.90;99.90
1049;DHT22;513;51.444;7.196;2023-03-12T01:47:25;1.90;99.90
1049;DHT22;513;51.444;7.196;2023-03-12T01:49:53;1.90;99.90
1049;DHT22;513;51.444;7.196;2023-03-12T01:52:23;2.00;99.90
1049;DHT22;513;51.444;7.196;2023-03-12T01:54:54;2.00;99.90
1049;DHT22;513;51.444;7.196;2023-03-12T01:57:28;2.00;99.90
1049;DHT22;513;51.444;7.196;2023-03-12T01:59:59;2.00;97.50
1049;DHT22;513;51.444;7.196;2023-03-12T02:02:26;2.00;99.90
1049;DHT22;513;51.444;7.196;2023-03-12T02:05:02;2.00;99.90
1049;DHT22;513;51.444;7.196;2023-03-12T02:07:30;2.00;97.90
1049;DHT22;513;51.444;7.196;2023-03-12T02:09:58;1.90;99.90
1049;DHT22;513;51.444;7.196;2023-03-12T02:12:26;2.00;99.90
1049;DHT22;513;51.444;7.196;2023-03-12T02:14:53;2.00;97.80
1049;DHT22;513;51.444;7.196;2023-03-12T02:17:20;2.10;83.80
1049;DHT22;513;51.444;7.196;2023-03-12T02:19:55;2.10;99.90
1049;DHT22;513;51.444;7.196;2023-03-12T02:22:23;2.00;99.90
1049;DHT22;513;51.444;7.196;2023-03-12T02:24:54;2.10;99.90
1049;DHT22;513;51.444;7.196;2023-03-12T02:27:24;2.00;99.90
1049;DHT22;513;51.444;7.196;2023-03-12T02:29:51;2.00;99.90
1049;DHT22;513;51.444;7.196;2023-03-12T02:32:22;2.10;99.90
1049;DHT22;513;51.444;7.196;2023-03-12T02:34:49;2.10;90.80
1049;DHT22;513;51.444;7.196;2023-03-12T02:37:16;2.10;90.00
1049;DHT22;513;51.444;7.196;2023-03-12T02:39:48;2.00;99.90
1049;DHT22;513;51.444;7.196;2023-03-12T02:42:17;2.00;99.90
1049;DHT22;513;51.444;7.196;2023-03-12T02:44:45;2.10;99.90
1049;DHT22;513;51.444;7.196;2023-03-12T02:47:12;2.20;99.90
1049;DHT22;513;51.444;7.196;2023-03-12T02:49:38;2.20;99.90
1049;DHT22;513;51.444;7.196;2023-03-12T02:52:05;2.20;99.00
1049;DHT22;513;51.444;7.196;2023-03-12T02:54:32;2.20;99.90
1049;DHT22;513;51.444;7.196;2023-03-12T02:56:58;2.20;99.90
1049;DHT22;513;51.444;7.196;2023-03-12T02:59:25;2.00;96.40
1049;DHT22;513;51.444;7.196;2023-03-12T03:01:54;2.00;99.90
1049;DHT22;513;51.444;7.196;2023-03-12T03:04:22;2.00;99.90
1049;DHT22;513;51.444;7.196;2023-03-12T03:06:50;2.10;99.90
1049;DHT22;513;51.444;7.196;2023-03-12T03:09:18;2.10;99.90
1049;DHT22;513;51.444;7.196;2023-03-12T03:11:46;2.10;99.90
1049;DHT22;513;51.444;7.196;2023-03-12T03:14:13;2.10;99.90
1049;DHT22;513;51.444;7.196;2023-03-12T03:16:40;2.10;99.90
1049;DHT22;513;51.444;7.196;2023-03-12T03:19:08;2.10;99.90
1049;DHT22;513;51.444;7.196;2023-03-12T03:21:35;2.10;99.90
1049;DHT22;513;51.444;7.196;2023-03-12T03:24:03;2.20;99.90
1049;DHT22;513;51.444;7.196;2023-03-12T03:26:29;2.10;99.90
1049;DHT22;513;51.444;7.196;2023-03-12T03:28:56;2.10;99.90
1049;DHT22;513;51.444;7.196;2023-03-12T03:31:23;2.10;99.90
1049;DHT22;513;51.444;7.196;2023-03-12T03:33:50;2.10;99.90
1049;DHT22;513;51.444;7.196;2023-03-12T03:36:18;2.10;99.90
1049;DHT22;513;51.444;7.196;2023-03-12T03:38:45;2.00;99.90
1049;DHT22;513;51.444;7.196;2023-03-12T03:41:14;1.90;99.90
1049;DHT22;513;51.444;7.196;2023-03-12T03:43:41;1.90;99.90
1049;DHT22;513;51.444;7.196;2023-03-12T03:46:09;1.90;99.90
1049;DHT22;513;51.444;7.196;2023-03-12T03:48:36;1.90;99.90
1049;DHT22;513;51.444;7.196;2023-03-12T03:51:04;2.00;99.90
1049;DHT22;513;51.444;7.196;2023-03-12T03:53:33;2.00;99.90
1049;DHT22;513;51.444;7.196;2023-03-12T03:56:04;2.10;99.90
1049;DHT22;513;51.444;7.196;2023-03-12T03:58:31;2.00;99.90
1049;DHT22;513;51.444;7.196;2023-03-12T04:00:58;2.10;99.90
1049;DHT22;513;51.444;7.196;2023-03-12T04:03:24;2.10;99.90
1049;DHT22;513;51.444;7.196;2023-03-12T04:05:54;2.10;99.90
1049;DHT22;513;51.444;7.196;2023-03-12T04:08:20;2.00;99.90
1049;DHT22;513;51.444;7.196;2023-03-12T04:10:48;2.00;99.90
1049;DHT22;513;51.444;7.196;2023-03-12T04:13:15;2.00;99.90
1049;DHT22;513;51.444;7.196;2023-03-12T04:15:46;2.10;99.90
1049;DHT22;513;51.444;7.196;2023-03-12T04:18:13;2.10;99.90
1049;DHT22;513;51.444;7.196;2023-03-12T04:20:39;2.00;99.90
1049;DHT22;513;51.444;7.196;2023-03-12T04:23:07;2.10;99.90
1049;DHT22;513;51.444;7.196;2023-03-12T04:25:33;2.20;99.90
1049;DHT22;513;51.444;7.196;2023-03-12T04:28:03;2.20;99.90
1049;DHT22;513;51.444;7.196;2023-03-12T04:30:30;2.10;99.90
1049;DHT22;513;51.444;7.196;2023-03-12T04:32:57;2.20;99.90
1049;DHT22;513;51.444;7.196;2023-03-12T04:35:24;2.20;99.90
1049;DHT22;513;51.444;7.196;2023-03-12T04:37:51;2.20;99.90
1049;DHT22;513;51.444;7.196;2023-03-12T04:40:17;2.30;96.20
1049;DHT22;513;51.444;7.196;2023-03-12T04:42:44;2.30;95.20
1049;DHT22;513;51.444;7.196;2023-03-12T04:45:12;2.40;64.20
1049;DHT22;513;51.444;7.196;2023-03-12T04:47:39;2.40;82.10
1049;DHT22;513;51.444;7.196;2023-03-12T04:50:07;2.40;90.50
1049;DHT22;513;51.444;7.196;2023-03-12T04:52:34;2.50;97.90
1049;DHT22;513;51.444;7.196;2023-03-12T04:55:00;2.50;91.30
1049;DHT22;513;51.444;7.196;2023-03-12T04:57:27;2.50;79.50
1049;DHT22;513;51.444;7.196;2023-03-12T04:59:54;2.50;60.10
1049;DHT22;513;51.444;7.196;2023-03-12T05:02:22;2.50;99.90
1049;DHT22;513;51.444;7.196;2023-03-12T05:04:48;2.50;62.00
1049;DHT22;513;51.444;7.196;2023-03-12T05:07:15;2.50;22.70
1049;DHT22;513;51.444;7.196;2023-03-12T05:09:42;2.40;99.90
1049;DHT22;513;51.444;7.196;2023-03-12T05:12:10;2.60;99.90
1049;DHT22;513;51.444;7.196;2023-03-12T05:14:37;2.60;56.40
1049;DHT22;513;51.444;7.196;2023-03-12T05:17:04;2.60;13.70
1049;DHT22;513;51.444;7.196;2023-03-12T05:19:32;2.60;37.10
1049;DHT22;513;51.444;7.196;2023-03-12T05:21:59;2.70;33.30
1049;DHT22;513;51.444;7.196;2023-03-12T05:24:27;2.70;25.80
1049;DHT22;513;51.444;7.196;2023-03-12T05:26:53;2.60;38.60
1049;DHT22;513;51.444;7.196;2023-03-12T05:29:20;2.60;23.80
1049;DHT22;513;51.444;7.196;2023-03-12T05:31:47;2.60;7.70
1049;DHT22;513;51.444;7.196;2023-03-12T05:34:14;2.50;36.60
1049;DHT22;513;51.444;7.196;2023-03-12T05:36:43;2.50;40.70
1049;DHT22;513;51.444;7.196;2023-03-12T05:39:10;2.60;23.50
1049;DHT22;513;51.444;7.196;2023-03-12T05:41:37;2.60;36.60
1049;DHT22;513;51.444;7.196;2023-03-12T05:44:04;2.60;52.30
1049;DHT22;513;51.444;7.196;2023-03-12T05:46:30;2.60;41.50
1049;DHT22;513;51.444;7.196;2023-03-12T05:48:57;2.60;48.00
1049;DHT22;513;51.444;7.196;2023-03-12T05:51:24;2.60;58.60
1049;DHT22;513;51.444;7.196;2023-03-12T05:53:52;2.60;77.90
1049;DHT22;513;51.444;7.196;2023-03-12T05:56:18;2.60;83.10
1049;DHT22;513;51.444;7.196;2023-03-12T05:58:47;2.60;29.80
1049;DHT22;513;51.444;7.196;2023-03-12T06:01:15;2.70;65.60
1049;DHT22;513;51.444;7.196;2023-03-12T06:03:42;2.70;99.90
1049;DHT22;513;51.444;7.196;2023-03-12T06:06:09;2.60;99.90
1049;DHT22;513;51.444;7.196;2023-03-12T06:08:37;2.60;99.90
1049;DHT22;513;51.444;7.196;2023-03-12T06:11:05;2.60;99.90
1049;DHT22;513;51.444;7.196;2023-03-12T06:13:32;2.60;99.90
1049;DHT22;513;51.444;7.196;2023-03-12T06:16:02;2.60;99.90
1049;DHT22;513;51.444;7.196;2023-03-12T06:18:30;2.50;99.90
1049;DHT22;513;51.444;7.196;2023-03-12T06:21:07;2.60;1.00
1049;DHT22;513;51.444;7.196;2023-03-12T06:23:33;2.50;85.60
1049;DHT22;513;51.444;7.196;2023-03-12T06:26:00;2.50;99.90
1049;DHT22;513;51.444;7.196;2023-03-12T06:28:28;2.50;1.00
1049;DHT22;513;51.444;7.196;2023-03-12T06:30:55;2.50;1.00
1049;DHT22;513;51.444;7.196;2023-03-12T06:33:22;2.50;1.30
1049;DHT22;513;51.444;7.196;2023-03-12T06:35:51;2.40;99.90
1049;DHT22;513;51.444;7.196;2023-03-12T06:38:18;2.50;99.90
1049;DHT22;513;51.444;7.196;2023-03-12T06:40:52;2.40;1.00
1049;DHT22;513;51.444;7.196;2023-03-12T06:43:19;2.40;99.90
1049;DHT22;513;51.444;7.196;2023-03-12T06:45:47;2.50;99.90
1049;DHT22;513;51.444;7.196;2023-03-12T06:48:14;2.50;1.00
1049;DHT22;513;51.444;7.196;2023-03-12T06:50:40;2.50;7.00
1049;DHT22;513;51.444;7.196;2023-03-12T06:53:08;2.50;99.90
1049;DHT22;513;51.444;7.196;2023-03-12T06:55:35;2.60;1.00
1049;DHT22;513;51.444;7.196;2023-03-12T06:58:02;2.50;1.00
1049;DHT22;513;51.444;7.196;2023-03-12T07:00:29;2.60;99.90
1049;DHT22;513;51.444;7.196;2023-03-12T07:02:57;2.50;1.00
1049;DHT22;513;51.444;7.196;2023-03-12T07:05:24;2.50;99.90
1049;DHT22;513;51.444;7.196;2023-03-12T07:07:51;2.50;1.00
1049;DHT22;513;51.444;7.196;2023-03-12T07:10:17;2.60;99.90
1049;DHT22;513;51.444;7.196;2023-03-12T07:12:44;2.60;99.90
1049;DHT22;513;51.444;7.196;2023-03-12T07:15:11;2.60;99.90
1049;DHT22;513;51.444;7.196;2023-03-12T07:17:38;2.60;1.00
1049;DHT22;513;51.444;7.196;2023-03-12T07:20:07;2.50;1.00
1049;DHT22;513;51.444;7.196;2023-03-12T07:22:34;2.60;1.00
1049;DHT22;513;51.444;7.196;2023-03-12T07:25:01;2.60;1.00
1049;DHT22;513;51.444;7.196;2023-03-12T07:27:28;2.60;1.00
1049;DHT22;513;51.444;7.196;2023-03-12T07:29:54;2.60;10.50
1049;DHT22;513;51.444;7.196;2023-03-12T07:32:21;2.70;15.10
1049;DHT22;513;51.444;7.196;2023-03-12T07:34:47;2.80;21.80
1049;DHT22;513;51.444;7.196;2023-03-12T07:37:15;2.90;24.60
1049;DHT22;513;51.444;7.196;2023-03-12T07:39:42;2.80;29.50
1049;DHT22;513;51.444;7.196;2023-03-12T07:42:09;2.90;49.10
1049;DHT22;513;51.444;7.196;2023-03-12T07:44:37;2.90;56.30
1049;DHT22;513;51.444;7.196;2023-03-12T07:47:04;2.90;65.30
1049;DHT22;513;51.444;7.196;2023-03-12T07:49:31;2.90;71.60
1049;DHT22;513;51.444;7.196;2023-03-12T07:51:57;2.90;80.20
1049;DHT22;513;51.444;7.196;2023-03-12T07:54:26;3.00;83.60
1049;DHT22;513;51.444;7.196;2023-03-12T07:56:55;2.90;92.90
1049;DHT22;513;51.444;7.196;2023-03-12T07:59:21;3.00;99.30
1049;DHT22;513;51.444;7.196;2023-03-12T08:01:48;3.10;99.90
1049;DHT22;513;51.444;7.196;2023-03-12T08:04:15;3.10;99.90
1049;DHT22;513;51.444;7.196;2023-03-12T08:06:42;3.20;99.90
1049;DHT22;513;51.444;7.196;2023-03-12T08:09:08;3.10;99.90
1049;DHT22;513;51.444;7.196;2023-03-12T08:11:36;3.20;99.90
1049;DHT22;513;51.444;7.196;2023-03-12T08:14:03;3.30;99.90
1049;DHT22;513;51.444;7.196;2023-03-12T08:16:30;3.30;99.90
1049;DHT22;513;51.444;7.196;2023-03-12T08:18:57;3.20;99.90
1049;DHT22;513;51.444;7.196;2023-03-12T08:21:24;3.30;99.90
1049;DHT22;513;51.444;7.196;2023-03-12T08:23:50;3.30;99.90
1049;DHT22;513;51.444;7.196;2023-03-12T08:26:17;3.40;99.90
1049;DHT22;513;51.444;7.196;2023-03-12T08:28:45;3.40;99.90
1049;DHT22;513;51.444;7.196;2023-03-12T08:31:12;3.40;99.90
1049;DHT22;513;51.444;7.196;2023-03-12T08:33:39;3.50;99.90
1049;DHT22;513;51.444;7.196;2023-03-12T08:36:08;3.50;99.90
1049;DHT22;513;51.444;7.196;2023-03-12T08:38:34;3.50;99.90
1049;DHT22;513;51.444;7.196;2023-03-12T08:41:01;3.50;99.90
1049;DHT22;513;51.444;7.196;2023-03-12T08:43:28;3.60;99.90
1049;DHT22;513;51.444;7.196;2023-03-12T08:45:57;3.60;99.90
1049;DHT22;513;51.444;7.196;2023-03-12T08:48:24;3.70;99.90
1049;DHT22;513;51.444;7.196;2023-03-12T08:50:54;3.70;99.90
1049;DHT22;513;51.444;7.196;2023-03-12T08:53:21;3.70;99.90
1049;DHT22;513;51.444;7.196;2023-03-12T08:55:48;3.80;99.90
1049;DHT22;513;51.444;7.196;2023-03-12T08:58:14;3.90;99.90
1049;DHT22;513;51.444;7.196;2023-03-12T09:00:41;4.00;99.90
1049;DHT22;513;51.444;7.196;2023-03-12T09:03:09;3.90;99.90
1049;DHT22;513;51.444;7.196;2023-03-12T09:05:39;3.90;99.90
1049;DHT22;513;51.444;7.196;2023-03-12T09:08:06;4.00;99.90
1049;DHT22;513;51.444;7.196;2023-03-12T09:10:33;4.10;99.90
1049;DHT22;513;51.444;7.196;2023-03-12T09:12:59;4.10;99.90
1049;DHT22;513;51.444;7.196;2023-03-12T09:15:26;4.20;99.90
1049;DHT22;513;51.444;7.196;2023-03-12T09:17:53;4.20;99.90
1049;DHT22;513;51.444;7.196;2023-03-12T09:20:23;4.20;99.90
1049;DHT22;513;51.444;7.196;2023-03-12T09:22:50;4.20;99.90
1049;DHT22;513;51.444;7.196;2023-03-12T09:25:17;4.20;99.90
1049;DHT22;513;51.444;7.196;2023-03-12T09:27:45;4.20;99.90
1049;DHT22;513;51.444;7.196;2023-03-12T09:30:14;4.30;99.90
1049;DHT22;513;51.444;7.196;2023-03-12T09:32:41;4.30;99.90
1049;DHT22;513;51.444;7.196;2023-03-12T09:35:10;4.40;99.90
1049;DHT22;513;51.444;7.196;2023-03-12T09:37:38;4.30;99.90
1049;DHT22;513;51.444;7.196;2023-03-12T09:40:06;4.30;99.90
1049;DHT22;513;51.444;7.196;2023-03-12T09:42:41;4.50;99.90
1049;DHT22;513;51.444;7.196;2023-03-12T09:45:14;4.60;99.90
1049;DHT22;513;51.444;7.196;2023-03-12T09:47:45;4.40;99.90
1049;DHT22;513;51.444;7.196;2023-03-12T09:50:20;4.50;99.90
1049;DHT22;513;51.444;7.196;2023-03-12T09:52:52;4.50;99.90
1049;DHT22;513;51.444;7.196;2023-03-12T09:55:22;4.50;99.90
1049;DHT22;513;51.444;7.196;2023-03-12T09:57:50;4.50;99.90
1049;DHT22;513;51.444;7.196;2023-03-12T10:00:19;4.60;99.90
1049;DHT22;513;51.444;7.196;2023-03-12T10:02:53;4.50;99.90
1049;DHT22;513;51.444;7.196;2023-03-12T10:05:33;4.50;99.90
1049;DHT22;513;51.444;7.196;2023-03-12T10:08:04;4.60;99.90
1049;DHT22;513;51.444;7.196;2023-03-12T10:10:43;4.60;99.90
1049;DHT22;513;51.444;7.196;2023-03-12T10:13:24;4.70;99.90
1049;DHT22;513;51.444;7.196;2023-03-12T10:16:03;4.60;99.90
1049;DHT22;513;51.444;7.196;2023-03-12T10:18:47;4.60;99.90
1049;DHT22;513;51.444;7.196;2023-03-12T10:21:21;4.50;99.90
1049;DHT22;513;51.444;7.196;2023-03-12T10:24:12;4.50;99.90
1049;DHT22;513;51.444;7.196;2023-03-12T10:26:44;4.50;99.90
1049;DHT22;513;51.444;7.196;2023-03-12T10:29:15;4.70;99.90
1049;DHT22;513;51.444;7.196;2023-03-12T10:31:50;4.70;99.90
1049;DHT22;513;51.444;7.196;2023-03-12T10:34:22;4.70;99.90
1049;DHT22;513;51.444;7.196;2023-03-12T10:36:51;4.80;99.90
1049;DHT22;513;51.444;7.196;2023-03-12T10:39:19;4.70;99.90
1049;DHT22;513;51.444;7.196;2023-03-12T10:41:47;4.80;99.90
1049;DHT22;513;51.444;7.196;2023-03-12T10:44:18;5.00;99.90
1049;DHT22;513;51.444;7.196;2023-03-12T10:47:08;5.00;99.90
1049;DHT22;513;51.444;7.196;2023-03-12T10:49:39;5.10;99.90
1049;DHT22;513;51.444;7.196;2023-03-12T10:52:14;5.10;99.90
1049;DHT22;513;51.444;7.196;2023-03-12T10:54:44;5.20;99.90
1049;DHT22;513;51.444;7.196;2023-03-12T10:57:11;5.30;99.90
1049;DHT22;513;51.444;7.196;2023-03-12T10:59:39;5.30;99.90
1049;DHT22;513;51.444;7.196;2023-03-12T11:02:28;5.40;99.90
1049;DHT22;513;51.444;7.196;2023-03-12T11:04:55;5.50;99.90
1049;DHT22;513;51.444;7.196;2023-03-12T11:07:24;5.60;99.90
1049;DHT22;513;51.444;7.196;2023-03-12T11:10:15;5.80;99.90
1049;DHT22;513;51.444;7.196;2023-03-12T11:12:54;5.80;99.90
1049;DHT22;513;51.444;7.196;2023-03-12T11:15:22;6.00;99.90
1049;DHT22;513;51.444;7.196;2023-03-12T11:17:50;6.00;99.90
1049;DHT22;513;51.444;7.196;2023-03-12T11:20:23;6.20;99.90
1049;DHT22;513;51.444;7.196;2023-03-12T11:22:50;6.30;99.90
1049;DHT22;513;51.444;7.196;2023-03-12T11:25:23;6.30;99.90
1049;DHT22;513;51.444;7.196;2023-03-12T11:27:52;6.30;99.90
1049;DHT22;513;51.444;7.196;2023-03-12T11:30:23;6.30;99.90
1049;DHT22;513;51.444;7.196;2023-03-12T11:32:52;6.40;99.90
1049;DHT22;513;51.444;7.196;2023-03-12T11:35:27;6.50;99.90
1049;DHT22;513;51.444;7.196;2023-03-12T11:37:57;6.50;99.90
1049;DHT22;513;51.444;7.196;2023-03-12T11:40:32;6.60;99.90
1049;DHT22;513;51.444;7.196;2023-03-12T11:43:08;6.60;99.90
1049;DHT22;513;51.444;7.196;2023-03-12T11:45:40;6.60;99.90
1049;DHT22;513;51.444;7.196;2023-03-12T11:48:12;6.70;99.90
1049;DHT22;513;51.444;7.196;2023-03-12T11:50:46;6.80;99.90
1049;DHT22;513;51.444;7.196;2023-03-12T11:53:26;7.00;99.90
1049;DHT22;513;51.444;7.196;2023-03-12T11:56:01;7.10;99.90
1049;DHT22;513;51.444;7.196;2023-03-12T11:58:33;7.20;99.90
1049;DHT22;513;51.444;7.196;2023-03-12T12:01:05;7.20;99.90
1049;DHT22;513;51.444;7.196;2023-03-12T12:03:55;7.40;99.90
1049;DHT22;513;51.444;7.196;2023-03-12T12:06:29;7.60;99.90
1049;DHT22;513;51.444;7.196;2023-03-12T12:09:11;7.70;99.90
1049;DHT22;513;51.444;7.196;2023-03-12T12:11:48;7.80;99.90
1049;DHT22;513;51.444;7.196;2023-03-12T12:14:27;7.80;99.90
1049;DHT22;513;51.444;7.196;2023-03-12T12:17:03;7.90;99.90
1049;DHT22;513;51.444;7.196;2023-03-12T12:19:44;7.90;99.90
1049;DHT22;513;51.444;7.196;2023-03-12T12:22:30;8.00;99.90
1049;DHT22;513;51.444;7.196;2023-03-12T12:25:18;8.10;99.90
1049;DHT22;513;51.444;7.196;2023-03-12T12:27:56;8.10;99.90
1049;DHT22;513;51.444;7.196;2023-03-12T12:30:33;8.20;99.90
1049;DHT22;513;51.444;7.196;2023-03-12T12:33:13;8.10;99.90
1049;DHT22;513;51.444;7.196;2023-03-12T12:35:43;8.10;99.90
1049;DHT22;513;51.444;7.196;2023-03-12T12:38:15;8.10;99.90
1049;DHT22;513;51.444;7.196;2023-03-12T12:40:48;8.20;99.90
1049;DHT22;513;51.444;7.196;2023-03-12T12:43:21;8.20;99.90
1049;DHT22;513;51.444;7.196;2023-03-12T12:45:49;8.20;99.90
1049;DHT22;513;51.444;7.196;2023-03-12T12:48:17;8.20;99.90
1049;DHT22;513;51.444;7.196;2023-03-12T12:50:45;8.30;99.90
1049;DHT22;513;51.444;7.196;2023-03-12T12:53:14;8.20;99.90
1049;DHT22;513;51.444;7.196;2023-03-12T12:55:44;8.20;99.90
1049;DHT22;513;51.444;7.196;2023-03-12T12:58:16;8.20;99.90
1049;DHT22;513;51.444;7.196;2023-03-12T13:00:46;8.30;99.90
1049;DHT22;513;51.444;7.196;2023-03-12T13:03:14;8.30;99.90
1049;DHT22;513;51.444;7.196;2023-03-12T13:05:46;8.10;99.90
1049;DHT22;513;51.444;7.196;2023-03-12T13:11:01;8.20;99.90
1049;DHT22;513;51.444;7.196;2023-03-12T13:13:29;8.20;99.90
1049;DHT22;513;51.444;7.196;2023-03-12T13:18:38;8.50;99.90
1049;DHT22;513;51.444;7.196;2023-03-12T13:21:08;8.60;99.90
1049;DHT22;513;51.444;7.196;2023-03-12T13:23:38;8.70;99.90
1049;DHT22;513;51.444;7.196;2023-03-12T13:26:14;8.80;99.90
1049;DHT22;513;51.444;7.196;2023-03-12T13:28:57;8.80;99.90
1049;DHT22;513;51.444;7.196;2023-03-12T13:31:34;9.10;99.90
1049;DHT22;513;51.444;7.196;2023-03-12T13:34:27;9.30;99.90
1049;DHT22;513;51.444;7.196;2023-03-12T13:36:56;9.50;99.90
1049;DHT22;513;51.444;7.196;2023-03-12T13:39:27;9.70;99.90
1049;DHT22;513;51.444;7.196;2023-03-12T13:41:55;9.70;99.90
1049;DHT22;513;51.444;7.196;2023-03-12T13:44:28;9.90;99.90
1049;DHT22;513;51.444;7.196;2023-03-12T13:46:58;10.00;99.90
1049;DHT22;513;51.444;7.196;2023-03-12T13:49:33;10.30;99.90
1049;DHT22;513;51.444;7.196;2023-03-12T13:52:08;10.20;99.90
1049;DHT22;513;51.444;7.196;2023-03-12T13:54:43;10.20;99.90
1049;DHT22;513;51.444;7.196;2023-03-12T13:57:20;10.20;99.90
1049;DHT22;513;51.444;7.196;2023-03-12T13:59:49;10.20;99.90
1049;DHT22;513;51.444;7.196;2023-03-12T14:02:22;10.10;99.90
1049;DHT22;513;51.444;7.196;2023-03-12T14:04:51;10.20;99.90
1049;DHT22;513;51.444;7.196;2023-03-12T14:07:39;10.20;99.90
1049;DHT22;513;51.444;7.196;2023-03-12T14:10:17;10.30;99.90
1049;DHT22;513;51.444;7.196;2023-03-12T14:12:51;10.30;99.90
1049;DHT22;513;51.444;7.196;2023-03-12T14:15:24;10.30;99.90
1049;DHT22;513;51.444;7.196;2023-03-12T14:17:57;10.40;99.90
1049;DHT22;513;51.444;7.196;2023-03-12T14:20:26;10.40;99.90
1049;DHT22;513;51.444;7.196;2023-03-12T14:22:56;10.40;99.90
1049;DHT22;513;51.444;7.196;2023-03-12T14:25:31;10.50;99.90
1049;DHT22;513;51.444;7.196;2023-03-12T14:28:00;10.50;99.90
1049;DHT22;513;51.444;7.196;2023-03-12T14:30:38;10.30;99.90
1049;DHT22;513;51.444;7.196;2023-03-12T14:33:08;10.30;99.90
1049;DHT22;513;51.444;7.196;2023-03-12T14:35:40;10.30;99.90
1049;DHT22;513;51.444;7.196;2023-03-12T14:38:14;10.50;99.90
1049;DHT22;513;51.444;7.196;2023-03-12T14:40:44;10.60;99.90
1049;DHT22;513;51.444;7.196;2023-03-12T14:43:24;10.40;99.90
1049;DHT22;513;51.444;7.196;2023-03-12T14:45:54;10.40;99.90
1049;DHT22;513;51.444;7.196;2023-03-12T14:48:22;10.50;99.90
1049;DHT22;513;51.444;7.196;2023-03-12T14:50:50;10.60;99.90
1049;DHT22;513;51.444;7.196;2023-03-12T14:53:19;10.70;99.90
1049;DHT22;513;51.444;7.196;2023-03-12T14:55:57;10.70;99.90
1049;DHT22;513;51.444;7.196;2023-03-12T14:58:24;10.70;99.90
1049;DHT22;513;51.444;7.196;2023-03-12T15:00:54;10.70;99.90
1049;DHT22;513;51.444;7.196;2023-03-12T15:03:23;10.80;99.90
1049;DHT22;513;51.444;7.196;2023-03-12T15:05:52;10.50;99.90
1049;DHT22;513;51.444;7.196;2023-03-12T15:08:19;10.60;99.90
1049;DHT22;513;51.444;7.196;2023-03-12T15:10:47;10.60;99.90
1049;DHT22;513;51.444;7.196;2023-03-12T15:13:15;10.70;99.90
1049;DHT22;513;51.444;7.196;2023-03-12T15:15:45;10.70;99.90
1049;DHT22;513;51.444;7.196;2023-03-12T15:18:14;10.70;99.90
1049;DHT22;513;51.444;7.196;2023-03-12T15:20:42;10.60;99.90
1049;DHT22;513;51.444;7.196;2023-03-12T15:23:11;10.70;99.90
1049;DHT22;513;51.444;7.196;2023-03-12T15:25:38;10.70;99.90
1049;DHT22;513;51.444;7.196;2023-03-12T15:28:23;10.60;99.90
1049;DHT22;513;51.444;7.196;2023-03-12T15:31:05;10.60;99.90
1049;DHT22;513;51.444;7.196;2023-03-12T15:33:32;10.60;99.90
1049;DHT22;513;51.444;7.196;2023-03-12T15:36:02;10.60;99.90
1049;DHT22;513;51.444;7.196;2023-03-12T15:38:32;10.60;99.90
1049;DHT22;513;51.444;7.196;2023-03-12T15:41:06;10.80;99.90
1049;DHT22;513;51.444;7.196;2023-03-12T15:43:33;10.80;99.90
1049;DHT22;513;51.444;7.196;2023-03-12T15:46:03;10.80;99.90
1049;DHT22;513;51.444;7.196;2023-03-12T15:48:32;10.80;99.90
1049;DHT22;513;51.444;7.196;2023-03-12T15:51:00;10.80;99.90
1049;DHT22;513;51.444;7.196;2023-03-12T15:53:30;10.80;99.90
1049;DHT22;513;51.444;7.196;2023-03-12T15:56:01;10.80;99.90
1049;DHT22;513;51.444;7.196;2023-03-12T15:58:30;10.70;99.90
1049;DHT22;513;51.444;7.196;2023-03-12T16:01:08;10.70;99.90
1049;DHT22;513;51.444;7.196;2023-03-12T16:03:35;10.70;99.90
1049;DHT22;513;51.444;7.196;2023-03-12T16:06:03;10.60;99.90
1049;DHT22;513;51.444;7.196;2023-03-12T16:08:35;10.70;99.90
1049;DHT22;513;51.444;7.196;2023-03-12T16:11:03;10.60;97.80
1049;DHT22;513;51.444;7.196;2023-03-12T16:13:31;10.60;97.00
1049;DHT22;513;51.444;7.196;2023-03-12T16:15:58;10.60;97.00
1049;DHT22;513;51.444;7.196;2023-03-12T16:18:26;10.60;95.30
1049;DHT22;513;51.444;7.196;2023-03-12T16:20:52;10.60;90.50
1049;DHT22;513;51.444;7.196;2023-03-12T16:23:19;10.60;90.30
1049;DHT22;513;51.444;7.196;2023-03-12T16:25:50;10.70;84.00
1049;DHT22;513;51.444;7.196;2023-03-12T16:28:19;10.70;79.50
1049;DHT22;513;51.444;7.196;2023-03-12T16:30:47;10.70;76.90
1049;DHT22;513;51.444;7.196;2023-03-12T16:33:15;10.70;68.00
1049;DHT22;513;51.444;7.196;2023-03-12T16:35:42;10.60;73.60
1049;DHT22;513;51.444;7.196;2023-03-12T16:38:09;10.60;48.40
1049;DHT22;513;51.444;7.196;2023-03-12T16:40:37;10.70;39.00
1049;DHT22;513;51.444;7.196;2023-03-12T16:43:13;10.60;39.70
1049;DHT22;513;51.444;7.196;2023-03-12T16:45:42;10.60;21.50
1049;DHT22;513;51.444;7.196;2023-03-12T16:48:13;10.60;15.00
1049;DHT22;513;51.444;7.196;2023-03-12T16:50:40;10.70;1.00
1049;DHT22;513;51.444;7.196;2023-03-12T16:53:09;10.60;1.00